Weldon, CA

9:59 AM PDT on October 01, 2014 (GMT -0700)
Squirrel Mountain Valley | Change Station
CLOSE
Current Station
Personal Weather Station
Location: Squirrel Mountain Valley, CA
Elevation: 2884 ft
Nearby Weather Stations

Elev 2884 ft 35.63 °N, 118.41 °W | Updated 7 seconds ago

Clear
Clear
66.4 °F
Feels Like 66.4 °F
N
0.0
Wind Variable Wind from ENE
Gusts 3.0 mph

Today
High -- | Low -- °F
--% Chance of Precip.
Yesterday
High -- | Low -- °F
Precip. -- in
6:48 AM 6:36 PM
Waxing Crescent, 49% visible
Pressure 29.88 in
Visibility 10.0 miles
Clouds Clear
Dew Point 44 °F
Humidity 44%
Rainfall 0.00 in
Snow Depth 0 in , 1 in , 0 in
UV 4 out of 12
Pollen 5.50 out of 12
Ozone Good
PM2.5 Moderate
Flu Activity Not available.
METAR KNID 011656Z 03005KT 10SM CLR 25/03 A2993 RMK AO2 SLP119 T02500028 $

More Conditions Fewer Conditions

Pressure 29.88 in
Visibility 10.0 miles
Clouds Clear
Dew Point 44 °F
Humidity 44%
Rainfall 0.00 in
Snow Depth 0 in , 1 in , 0 in
UV 4 out of 12
Pollen 5.50 out of 12
Ozone Good
PM2.5 Moderate
Flu Activity Not available.
METAR KNID 011656Z 03005KT 10SM CLR 25/03 A2993 RMK AO2 SLP119 T02500028 $

More Conditions Fewer Conditions

10-Day Weather Forecast

Almanac

Astronomy

Oct. 01, 2014 Rise Set
Actual Time 6:48 AM PDT 6:36 PM PDT
Civil Twilight 6:22 AM PDT 7:02 PM PDT
Nautical Twilight 5:53 AM PDT 7:31 PM PDT
Astronomical Twilight 5:23 AM PDT 8:01 PM PDT
Moon 1:44 PM PDT No Moon Set
Length of Visible Light 12h 39m
Length of Day
11h 48m
Tomorrow will be 2m 14s shorter.
Waxing Crescent, 49% of the Moon is Illuminated
Today
Waxing Crescent
Oct 1
First Quarter
Oct 8
Full
Oct 15
Last Quarter
Oct 23
New

Today's Extremes

State Highs State Lows

Community

WunderPhotos

Upload Photos

1,757,981 photos uploaded!

WunderBlogs® & News

By Dr. Jeff Masters
Director of Meteorology, Weather Underground
By Kari Strenfel
Meteorologist, Weather Underground
By Christopher C. Burt
Weather Historian, Weather Underground
October 1, 2014
October 1, 2014
October 1, 2014

Nearby

Air Quality

  Air Quality AQ Index Pollutant
Yesterday Moderate
OZONE
Yesterday Good
PM2.5
Current Moderate
PM2.5
Current Good
OZONE
Wednesday Moderate
OZONE
Thursday Unhealthy for Sensitive Groups
OZONE
Friday Unhealthy for Sensitive Groups
OZONE
Saturday Unhealthy for Sensitive Groups
OZONE
Sunday Unhealthy for Sensitive Groups
OZONE

Snow Depth

Station Depth Elevation
Truckee #2 0 in 6400 ft
Ebbetts Pass 1 in 8700 ft
Hagan's Meadow 0 in 8000 ft
Leavitt Lake 0 in 9400 ft
Tahoe City Cross 1 in 6750 ft

Earthquake Activity

City Distance Mag. Time & Date
No recent earthquake activity has been reported nearby.
Minimum magnitude displayed is 2.5.

Coastal Water Temperatures

Place Temperature
No Stations Reporting

Nearby Weather Stations